createdAt,value
2019-01-27T00:00:16.463Z,73.43
2019-01-27T00:02:57.092Z,69.93
2019-01-27T00:05:37.845Z,67.47
2019-01-27T00:08:19.120Z,66.80
2019-01-27T00:11:00.414Z,66.70
2019-01-27T00:13:41.142Z,65.90
2019-01-27T00:16:22.793Z,65.67
2019-01-27T00:19:03.855Z,63.63
2019-01-27T00:21:44.527Z,65.13
2019-01-27T00:24:25.751Z,66.60
2019-01-27T00:27:07.190Z,65.30
2019-01-27T00:29:48.388Z,64.87
2019-01-27T00:32:29.613Z,65.10
2019-01-27T00:35:10.116Z,63.63
2019-01-27T00:37:50.826Z,65.07
2019-01-27T00:40:31.730Z,65.33
2019-01-27T00:43:13.300Z,62.03
2019-01-27T00:45:54.263Z,63.60
2019-01-27T00:48:35.683Z,61.20
2019-01-27T00:51:16.357Z,62.33
2019-01-27T00:53:56.974Z,64.10
2019-01-27T00:56:36.926Z,61.60
2019-01-27T01:02:25.768Z,59.10
2019-01-27T01:05:06.948Z,58.73
2019-01-27T01:07:48.085Z,58.27
2019-01-27T01:10:29.701Z,57.13
2019-01-27T01:13:10.598Z,57.07
2019-01-27T01:15:51.861Z,56.53
2019-01-27T01:18:31.304Z,57.57
2019-01-27T01:21:19.819Z,56.20
2019-01-27T01:24:01.130Z,54.97
2019-01-27T01:26:42.522Z,57.20
2019-01-27T01:29:24.051Z,57.90
2019-01-27T01:32:05.141Z,57.83
2019-01-27T01:34:46.195Z,57.07
2019-01-27T01:37:27.507Z,53.73
2019-01-27T01:40:08.746Z,56.03
2019-01-27T01:42:49.523Z,58.33
2019-01-27T01:45:31.060Z,62.53
2019-01-27T01:48:11.729Z,62.50
2019-01-27T01:50:52.665Z,66.43
2019-01-27T01:53:34.034Z,59.77
2019-01-27T01:56:15.461Z,62.70
2019-01-27T01:58:56.077Z,62.30
2019-01-27T02:01:36.938Z,61.77
2019-01-27T02:04:18.149Z,65.17
2019-01-27T02:06:58.761Z,68.37
2019-01-27T02:09:39.948Z,68.20
2019-01-27T02:12:21.362Z,69.00
2019-01-27T02:15:02.724Z,70.87
2019-01-27T02:17:43.481Z,69.53
2019-01-27T02:20:25.463Z,72.20
2019-01-27T02:23:06.938Z,74.97
2019-01-27T02:25:48.648Z,75.07
2019-01-27T02:28:29.537Z,71.87
2019-01-27T02:31:10.901Z,62.93
2019-01-27T02:33:52.349Z,66.60
2019-01-27T02:36:33.187Z,69.33
2019-01-27T02:39:13.493Z,71.50
2019-01-27T02:45:01.761Z,73.30
2019-01-27T02:47:43.076Z,83.90
2019-01-27T02:50:24.279Z,61.17
2019-01-27T02:53:05.066Z,73.60
2019-01-27T02:55:46.607Z,81.40
2019-01-27T02:58:27.696Z,81.23
2019-01-27T03:01:07.214Z,79.00
2019-01-27T03:03:55.658Z,79.27
2019-01-27T03:07:02.022Z,74.03
2019-01-27T03:09:44.631Z,79.37
2019-01-27T03:12:25.507Z,77.90
2019-01-27T03:15:06.175Z,74.63
2019-01-27T03:17:47.323Z,75.83
2019-01-27T03:20:27.965Z,78.00
2019-01-27T03:23:09.242Z,78.33
2019-01-27T03:25:50.515Z,77.87
2019-01-27T03:28:31.354Z,76.97
2019-01-27T03:31:12.491Z,77.53
2019-01-27T03:33:53.772Z,75.20
2019-01-27T03:36:35.149Z,75.07
2019-01-27T03:39:16.525Z,77.10
2019-01-27T03:41:58.098Z,75.17
2019-01-27T03:44:39.163Z,76.43
2019-01-27T03:47:18.984Z,80.60
2019-01-27T03:50:00.225Z,78.97
2019-01-27T03:52:41.627Z,75.93
2019-01-27T03:55:22.438Z,72.33
2019-01-27T03:58:03.950Z,70.23
2019-01-27T04:00:43.462Z,73.13
2019-01-27T04:06:37.186Z,71.97
2019-01-27T04:09:18.204Z,74.90
2019-01-27T04:11:59.596Z,78.53
2019-01-27T04:14:40.371Z,71.57
2019-01-27T04:17:21.252Z,74.57
2019-01-27T04:20:00.689Z,75.50
2019-01-27T04:22:41.823Z,66.03
2019-01-27T04:25:21.391Z,69.30
2019-01-27T04:28:02.461Z,69.03
2019-01-27T04:30:42.056Z,69.83
2019-01-27T04:33:22.693Z,68.77
2019-01-27T04:36:04.179Z,69.27
2019-01-27T04:38:45.443Z,69.13
2019-01-27T04:41:26.519Z,71.37
2019-01-27T04:44:07.982Z,68.07
2019-01-27T04:46:49.219Z,66.67
2019-01-27T04:49:30.023Z,69.80
2019-01-27T04:52:10.607Z,69.40
2019-01-27T04:54:51.275Z,61.17
2019-01-27T04:57:31.017Z,64.60
2019-01-27T05:00:12.027Z,60.17
2019-01-27T05:03:11.952Z,52.60
2019-01-27T05:05:53.332Z,62.87
2019-01-27T05:08:33.982Z,50.73
2019-01-27T05:11:15.446Z,62.87
2019-01-27T05:13:56.752Z,60.97
2019-01-27T05:16:38.142Z,63.57
2019-01-27T05:19:19.898Z,62.60
2019-01-27T05:22:01.273Z,61.33
2019-01-27T05:24:42.639Z,52.53
2019-01-27T05:27:25.396Z,60.23
2019-01-27T05:30:06.508Z,59.27
2019-01-27T05:32:47.986Z,61.07
2019-01-27T05:35:29.477Z,57.70
2019-01-27T05:38:10.829Z,62.60
2019-01-27T05:40:51.859Z,57.63
2019-01-27T05:43:32.949Z,54.93
2019-01-27T05:46:13.666Z,56.63
2019-01-27T05:48:54.487Z,54.53
2019-01-27T05:51:35.946Z,53.50
2019-01-27T05:54:17.366Z,52.30
2019-01-27T05:56:56.873Z,50.63
2019-01-27T05:59:37.528Z,54.00
2019-01-27T06:02:19.917Z,57.97
2019-01-27T06:05:01.424Z,55.70
2019-01-27T06:07:42.902Z,55.70
2019-01-27T06:10:24.118Z,58.33
2019-01-27T06:13:05.677Z,57.10
2019-01-27T06:15:45.937Z,54.93
2019-01-27T06:18:34.437Z,57.47
2019-01-27T06:21:15.665Z,57.13
2019-01-27T06:23:56.772Z,60.13
2019-01-27T06:26:37.457Z,60.87
2019-01-27T06:29:18.646Z,55.67
2019-01-27T06:31:59.996Z,55.53
2019-01-27T06:34:39.545Z,55.37
2019-01-27T06:37:24.815Z,55.90
2019-01-27T06:40:03.292Z,57.33
2019-01-27T06:42:44.428Z,53.20
2019-01-27T06:45:25.776Z,49.80
2019-01-27T06:48:06.690Z,51.27
2019-01-27T06:50:47.970Z,51.13
2019-01-27T06:53:29.174Z,46.17
2019-01-27T06:56:10.309Z,49.27
2019-01-27T06:59:10.315Z,46.30
2019-01-27T07:02:04.309Z,39.33
2019-01-27T07:04:54.529Z,47.17
2019-01-27T07:07:46.629Z,45.33
2019-01-27T07:10:49.658Z,44.80
2019-01-27T07:13:55.930Z,42.70
2019-01-27T07:16:55.056Z,41.87
2019-01-27T07:22:48.183Z,37.47
2019-01-27T07:25:55.576Z,37.53
2019-01-27T07:28:55.189Z,38.97
2019-01-27T07:32:02.664Z,39.30
2019-01-27T07:35:02.881Z,38.83
2019-01-27T07:38:03.194Z,41.70
2019-01-27T07:40:53.751Z,39.87
2019-01-27T07:43:53.338Z,39.83
2019-01-27T07:46:53.834Z,39.50
2019-01-27T07:49:53.332Z,41.00
2019-01-27T07:52:53.446Z,42.53
2019-01-27T07:55:53.836Z,42.10
2019-01-27T07:58:49.583Z,42.13
2019-01-27T08:01:45.943Z,42.23
2019-01-27T08:04:36.819Z,42.73
2019-01-27T08:07:37.185Z,43.73
2019-01-27T08:10:38.655Z,45.50
2019-01-27T08:13:45.961Z,42.90
2019-01-27T08:16:48.920Z,44.17
2019-01-27T08:19:51.587Z,42.47
2019-01-27T08:22:51.326Z,40.03
2019-01-27T08:29:06.634Z,41.93
2019-01-27T08:32:06.360Z,42.13
2019-01-27T08:34:57.220Z,42.07
2019-01-27T08:37:57.464Z,39.83
2019-01-27T08:40:57.566Z,39.40
2019-01-27T08:43:59.475Z,42.87
2019-01-27T08:46:45.757Z,40.63
2019-01-27T08:49:26.681Z,40.23
2019-01-27T08:52:08.070Z,37.20
2019-01-27T08:54:49.313Z,37.43
2019-01-27T08:57:30.819Z,36.70
2019-01-27T09:00:11.677Z,37.93
2019-01-27T09:03:11.538Z,36.50
2019-01-27T09:06:11.994Z,36.90
2019-01-27T09:09:12.638Z,35.43
2019-01-27T09:12:07.376Z,35.17
2019-01-27T09:15:07.425Z,33.83
2019-01-27T09:18:07.294Z,34.13
2019-01-27T09:24:16.201Z,35.80
2019-01-27T09:27:15.885Z,36.50
2019-01-27T09:30:15.468Z,37.03
2019-01-27T09:33:15.169Z,35.43
2019-01-27T09:36:14.740Z,33.67
2019-01-27T09:39:12.743Z,30.20
2019-01-27T09:42:12.959Z,32.50
2019-01-27T09:45:00.382Z,32.50
2019-01-27T09:48:03.701Z,32.87
2019-01-27T09:50:49.942Z,32.20
2019-01-27T09:53:55.899Z,31.33
2019-01-27T09:56:56.042Z,33.37
2019-01-27T10:02:54.634Z,31.27
2019-01-27T10:06:00.278Z,33.17
2019-01-27T10:09:00.368Z,32.07
2019-01-27T10:11:59.909Z,31.50
2019-01-27T10:14:46.675Z,33.37
2019-01-27T10:17:47.054Z,33.70
2019-01-27T10:20:46.650Z,31.93
2019-01-27T10:23:49.361Z,32.77
2019-01-27T10:26:49.080Z,29.63
2019-01-27T10:29:39.872Z,32.27
2019-01-27T10:32:39.494Z,28.67
2019-01-27T10:35:42.983Z,29.60
2019-01-27T10:38:41.412Z,31.03
2019-01-27T10:41:32.023Z,29.97
2019-01-27T10:44:32.049Z,29.07
2019-01-27T10:47:37.806Z,30.53
2019-01-27T10:50:37.684Z,31.43
2019-01-27T10:53:34.599Z,28.83
2019-01-27T10:56:29.056Z,26.30
2019-01-27T10:59:24.473Z,29.03
2019-01-27T11:02:24.173Z,28.30
2019-01-27T11:05:27.397Z,25.00
2019-01-27T11:08:27.236Z,26.97
2019-01-27T11:11:34.962Z,26.47
2019-01-27T11:14:35.291Z,28.10
2019-01-27T11:17:31.660Z,31.10
2019-01-27T11:23:28.131Z,31.63
2019-01-27T11:26:28.022Z,32.30
2019-01-27T11:29:27.592Z,33.03
2019-01-27T11:35:37.479Z,28.63
2019-01-27T11:38:40.485Z,30.33
2019-01-27T11:41:40.256Z,33.43
2019-01-27T11:44:45.807Z,32.03
2019-01-27T11:47:45.380Z,31.27
2019-01-27T11:50:30.891Z,30.90
2019-01-27T11:53:11.687Z,32.07
2019-01-27T11:55:53.103Z,31.00
2019-01-27T11:58:34.432Z,34.53
2019-01-27T12:01:15.680Z,31.90
2019-01-27T12:03:56.970Z,30.43
2019-01-27T12:06:37.872Z,33.53
2019-01-27T12:09:18.588Z,31.50
2019-01-27T12:12:00.093Z,27.90
2019-01-27T12:14:40.778Z,34.13
2019-01-27T12:17:20.792Z,34.77
2019-01-27T12:20:02.062Z,30.50
2019-01-27T12:22:43.521Z,33.77
2019-01-27T12:25:24.758Z,31.93
2019-01-27T12:28:05.425Z,32.23
2019-01-27T12:30:46.607Z,33.33
2019-01-27T12:33:27.574Z,34.50
2019-01-27T12:36:08.739Z,34.53
2019-01-27T12:38:49.998Z,35.13
2019-01-27T12:41:31.390Z,33.87
2019-01-27T12:44:12.054Z,32.03
2019-01-27T12:46:53.361Z,35.97
2019-01-27T12:49:34.317Z,34.27
2019-01-27T12:52:13.917Z,33.57
2019-01-27T12:55:02.426Z,34.47
2019-01-27T12:57:43.805Z,34.63
2019-01-27T13:00:25.125Z,35.97
2019-01-27T13:03:06.444Z,26.00
2019-01-27T13:05:47.168Z,35.27
2019-01-27T13:08:27.858Z,35.10
2019-01-27T13:11:08.588Z,35.93
2019-01-27T13:13:50.012Z,38.13
2019-01-27T13:16:30.746Z,37.47
2019-01-27T13:19:11.959Z,38.17
2019-01-27T13:21:52.663Z,36.13
2019-01-27T13:24:32.630Z,37.33
2019-01-27T13:27:21.156Z,37.53
2019-01-27T13:30:02.384Z,35.50
2019-01-27T13:32:43.783Z,34.33
2019-01-27T13:35:25.208Z,37.50
2019-01-27T13:38:06.785Z,36.77
2019-01-27T13:40:48.230Z,34.67
2019-01-27T13:43:29.787Z,36.77
2019-01-27T13:46:11.284Z,35.73
2019-01-27T13:48:52.635Z,36.20
2019-01-27T13:51:33.777Z,35.80
2019-01-27T13:54:15.076Z,35.10
2019-01-27T13:56:56.601Z,35.77
2019-01-27T13:59:38.006Z,35.07
2019-01-27T14:02:19.041Z,30.13
2019-01-27T14:05:00.191Z,34.70
2019-01-27T14:07:41.533Z,34.77
2019-01-27T14:10:22.716Z,34.60
2019-01-27T14:13:04.029Z,32.33
2019-01-27T14:15:45.030Z,35.97
2019-01-27T14:18:26.040Z,35.60
2019-01-27T14:21:07.503Z,34.93
2019-01-27T14:23:48.671Z,36.80
2019-01-27T14:26:29.714Z,33.33
2019-01-27T14:29:10.423Z,34.50
2019-01-27T14:31:51.576Z,34.33
2019-01-27T14:34:32.496Z,36.10
2019-01-27T14:37:13.206Z,34.30
2019-01-27T14:39:54.741Z,36.30
2019-01-27T14:42:36.190Z,35.93
2019-01-27T14:45:17.098Z,36.17
2019-01-27T14:47:57.814Z,34.70
2019-01-27T14:50:38.841Z,25.43
2019-01-27T14:53:20.326Z,34.33
2019-01-27T14:56:01.869Z,38.47
2019-01-27T14:58:43.228Z,32.53
2019-01-27T15:01:24.650Z,35.27
2019-01-27T15:04:05.751Z,35.00
2019-01-27T15:06:46.955Z,36.10
2019-01-27T15:09:27.685Z,36.17
2019-01-27T15:12:08.843Z,37.03
2019-01-27T15:14:49.514Z,38.53
2019-01-27T15:17:28.979Z,37.63
2019-01-27T15:20:36.376Z,38.40
2019-01-27T15:23:17.596Z,37.90
2019-01-27T15:25:58.764Z,37.03
2019-01-27T15:28:39.647Z,39.40
2019-01-27T15:31:20.281Z,39.60
2019-01-27T15:33:59.795Z,34.60
2019-01-27T15:36:48.423Z,38.93
2019-01-27T15:39:29.407Z,37.27
2019-01-27T15:42:10.160Z,38.80
2019-01-27T15:44:51.414Z,37.77
2019-01-27T15:47:32.611Z,37.03
2019-01-27T15:50:13.238Z,34.13
2019-01-27T15:52:53.799Z,35.77
2019-01-27T15:55:35.045Z,37.17
2019-01-27T15:58:15.705Z,37.07
2019-01-27T16:00:56.914Z,36.97
2019-01-27T16:03:38.262Z,36.63
2019-01-27T16:06:18.825Z,39.30
2019-01-27T16:09:00.110Z,37.20
2019-01-27T16:11:41.525Z,35.93
2019-01-27T16:14:22.637Z,38.40
2019-01-27T16:17:04.106Z,38.70
2019-01-27T16:19:45.573Z,38.93
2019-01-27T16:22:26.890Z,37.13
2019-01-27T16:25:08.345Z,38.17
2019-01-27T16:27:49.567Z,39.23
2019-01-27T16:36:43.818Z,38.63
2019-01-27T16:39:25.375Z,38.70
2019-01-27T16:42:05.378Z,37.80
2019-01-27T16:47:54.032Z,40.00
2019-01-27T16:50:35.157Z,39.10
2019-01-27T16:53:16.342Z,38.07
2019-01-27T16:55:57.872Z,38.97
2019-01-27T16:58:38.897Z,37.40
2019-01-27T17:01:20.315Z,40.40
2019-01-27T17:04:01.113Z,40.40
2019-01-27T17:06:42.340Z,37.60
2019-01-27T17:09:23.539Z,40.33
2019-01-27T17:12:04.776Z,39.67
2019-01-27T17:14:45.503Z,38.33
2019-01-27T17:17:26.275Z,40.13
2019-01-27T17:20:07.412Z,40.93
2019-01-27T17:22:48.693Z,39.13
2019-01-27T17:25:29.873Z,42.70
2019-01-27T17:28:11.328Z,41.57
2019-01-27T17:30:52.821Z,40.90
2019-01-27T17:33:32.323Z,43.70
2019-01-27T17:36:13.102Z,41.80
2019-01-27T17:38:54.530Z,42.67
2019-01-27T17:41:35.881Z,42.83
2019-01-27T17:44:16.966Z,41.53
2019-01-27T17:46:58.249Z,43.73
2019-01-27T17:49:39.707Z,44.43
2019-01-27T17:52:20.330Z,42.87
2019-01-27T17:54:59.995Z,44.70
2019-01-27T18:01:03.307Z,44.00
2019-01-27T18:07:04.260Z,44.73
2019-01-27T18:10:03.738Z,43.43
2019-01-27T18:12:55.256Z,42.33
2019-01-27T18:15:36.350Z,43.30
2019-01-27T18:18:17.058Z,43.77
2019-01-27T18:20:58.668Z,40.97
2019-01-27T18:23:40.088Z,42.77
2019-01-27T18:26:21.591Z,43.77
2019-01-27T18:29:02.543Z,43.13
2019-01-27T18:31:43.973Z,43.47
2019-01-27T18:34:24.913Z,45.33
2019-01-27T18:37:05.729Z,45.67
2019-01-27T18:39:47.037Z,44.57
2019-01-27T18:42:27.831Z,44.53
2019-01-27T18:45:08.512Z,43.73
2019-01-27T18:47:49.274Z,45.23
2019-01-27T18:50:30.798Z,42.67
2019-01-27T18:53:31.003Z,39.67
2019-01-27T18:56:31.148Z,39.80
2019-01-27T19:02:46.896Z,41.80
2019-01-27T19:05:34.225Z,41.37
2019-01-27T19:08:34.139Z,41.73
2019-01-27T19:11:37.429Z,40.87
2019-01-27T19:14:37.024Z,36.73
2019-01-27T19:17:36.630Z,39.10
2019-01-27T19:20:36.892Z,39.97
2019-01-27T19:23:28.236Z,41.20
2019-01-27T19:26:31.156Z,39.87
2019-01-27T19:29:28.235Z,37.63
2019-01-27T19:32:31.185Z,31.77
2019-01-27T19:38:49.025Z,33.60
2019-01-27T19:41:49.360Z,36.13
2019-01-27T19:47:46.001Z,32.77
2019-01-27T19:50:42.656Z,31.57
2019-01-27T19:53:42.806Z,31.17
2019-01-27T19:59:45.378Z,32.57
2019-01-27T20:02:45.725Z,32.00
2019-01-27T20:05:46.025Z,32.03
2019-01-27T20:08:33.926Z,33.10
2019-01-27T20:11:33.623Z,31.77
2019-01-27T20:14:39.384Z,31.13
2019-01-27T20:17:39.679Z,32.10
2019-01-27T20:20:34.788Z,30.53
2019-01-27T20:23:36.333Z,31.67
2019-01-27T20:26:36.804Z,31.63
2019-01-27T20:29:37.006Z,32.23
2019-01-27T20:32:37.316Z,30.73
2019-01-27T20:35:36.904Z,30.57
2019-01-27T20:38:36.654Z,30.20
2019-01-27T20:41:36.988Z,29.43
2019-01-27T20:44:36.548Z,31.10
2019-01-27T20:47:35.276Z,31.73
2019-01-27T20:50:22.022Z,29.00
2019-01-27T20:53:21.916Z,30.17
2019-01-27T20:56:21.438Z,30.23
2019-01-27T21:02:30.354Z,29.97
2019-01-27T21:05:20.366Z,30.27
2019-01-27T21:11:24.952Z,32.80
2019-01-27T21:14:27.957Z,33.90
2019-01-27T21:17:17.822Z,34.20
2019-01-27T21:20:03.322Z,34.90
2019-01-27T21:22:44.043Z,34.53
2019-01-27T21:25:24.787Z,37.43
2019-01-27T21:28:05.561Z,35.77
2019-01-27T21:30:46.525Z,24.77
2019-01-27T21:33:27.737Z,30.40
2019-01-27T21:36:09.256Z,26.83
2019-01-27T21:38:50.801Z,27.63
2019-01-27T21:41:32.309Z,23.00
2019-01-27T21:44:13.675Z,26.27
2019-01-27T21:46:54.390Z,21.67
2019-01-27T21:49:35.895Z,25.93
2019-01-27T21:52:16.497Z,23.57
2019-01-27T21:54:57.129Z,22.30
2019-01-27T21:57:38.091Z,21.80
2019-01-27T22:00:19.586Z,21.20
2019-01-27T22:02:59.149Z,21.93
2019-01-27T22:05:39.888Z,22.13
2019-01-27T22:08:20.990Z,22.73
2019-01-27T22:11:02.332Z,22.07
2019-01-27T22:13:43.665Z,22.07
2019-01-27T22:16:25.032Z,23.27
2019-01-27T22:19:06.490Z,22.63
2019-01-27T22:21:47.592Z,22.03
2019-01-27T22:24:29.179Z,22.03
2019-01-27T22:27:10.055Z,21.90
2019-01-27T22:29:51.136Z,21.33
2019-01-27T22:32:31.726Z,21.00
2019-01-27T22:35:12.459Z,22.97
2019-01-27T22:37:53.870Z,21.87
2019-01-27T22:40:35.378Z,23.40
2019-01-27T22:43:16.702Z,23.37
2019-01-27T22:45:57.490Z,22.57
2019-01-27T22:48:38.945Z,23.63
2019-01-27T22:51:20.299Z,23.57
2019-01-27T22:54:00.287Z,23.37
2019-01-27T22:56:48.871Z,24.60
2019-01-27T22:59:29.525Z,24.03
2019-01-27T23:02:10.571Z,23.30
2019-01-27T23:04:51.631Z,24.40
2019-01-27T23:07:32.916Z,24.43
2019-01-27T23:10:14.180Z,24.20
2019-01-27T23:12:55.164Z,24.03
2019-01-27T23:15:36.194Z,24.23
2019-01-27T23:18:17.586Z,21.43
2019-01-27T23:20:59.042Z,22.97
2019-01-27T23:23:40.521Z,20.30
2019-01-27T23:26:21.517Z,23.07
2019-01-27T23:29:03.068Z,24.63
2019-01-27T23:31:44.249Z,23.37
2019-01-27T23:34:25.461Z,24.40
2019-01-27T23:37:06.620Z,23.90
2019-01-27T23:39:47.452Z,24.93
2019-01-27T23:42:28.323Z,25.27
2019-01-27T23:45:09.308Z,27.17
2019-01-27T23:47:50.554Z,25.33
2019-01-27T23:50:31.228Z,26.17
2019-01-27T23:53:12.343Z,25.40
2019-01-27T23:55:53.635Z,26.83
2019-01-27T23:58:34.885Z,26.37
